• Join FlightAware (Why Join?)
  • Login
  • US Flag 
08:34AM EDT


 

Airport Tracker/Info


-or-


 

Live Flight TrackerFlight Track Log ✈ ATN510 ✈ 08-May-2013 ✈ KWRI - KBWI

Flight Track Log - Related Links

Times and Time Zones

All times are in EDT time to prevent confusion due to time zone crossing. See the ATN510 flight status page for this flight to view local times or setup timezone preferences in your user account.

Time Position Orientation Groundspeed Altitude Reporting Facility
EDT Latitude Longitude Course Direction KTS MPH feet Rate Location/Type
11:29PM 39.9136 -74.6708 180° South 222 255 3,000  Level New York Center
11:30PM 39.8600 -74.6514 164° South 217 250 3,900 1,260 Climbing New York Center
11:32PM 39.7367 -74.6067 164° South 233 268 7,000 1,380 Climbing Washington Center
11:33PM 39.6592 -74.5667 180° South  Level FlightAware Approximate
11:33PM 39.6739 -74.5778 160° South 239 275 8,100  Level Washington Center
11:34PM 39.6008 -74.5761 179° South 250 288 8,000 60 Descending Washington Center
11:35PM 39.5322 -74.5878 187° South 255 293 8,300 780 Climbing Washington Center
11:36PM 39.4953 -74.6744 241° Southwest 231 266 9,600 1,260 Climbing Washington Center
11:37PM 39.4689 -74.7689 250° West 247 284 10,800 660 Climbing Washington Center
11:38PM 39.4383 -74.8661 248° West 273 314 11,000 60 Climbing Washington Center
11:39PM 39.4078 -74.9658 248° West 294 338 11,000  Level Washington Center
11:40PM 39.3747 -75.0708 248° West 305 351 11,000  Level Washington Center
11:41PM 39.3439 -75.1703 248° West 311 358 11,000  Level Washington Center
11:42PM 39.3131 -75.2669 248° West 306 352 11,000 -60 Level Washington Center
11:43PM 39.2842 -75.3611 248° West 301 346 10,900 -600 Descending Washington Center
11:44PM 39.2550 -75.4494 247° West 288 331 9,900 -1,200 Descending Washington Center
11:45PM 39.2322 -75.5406 252° West 275 316 8,600 -960 Descending Washington Center
11:46PM 39.2217 -75.6292 261° West 262 302 8,000 -300 Descending Washington Center
11:47PM 39.2114 -75.7094 261° West 246 283 8,100  Climbing Washington Center
11:48PM 39.2028 -75.8031 263° West 246 283 8,100 -120 Level Washington Center
11:49PM 39.1964 -75.8889 265° West 251 289 7,900 -540 Descending Washington Center
11:50PM 39.1942 -75.9772 268° West 251 289 7,100 -900 Descending Washington Center
11:51PM 39.1856 -76.0575 262° West 251 289 6,200 -600 Descending Washington Center
11:52PM 39.1789 -76.1431 264° West 251 289 5,900 -540 Descending Washington Center
11:53PM 39.1700 -76.2342 263° West 252 290 5,100 -1,020 Descending Washington Center
11:54PM 39.1633 -76.3197 264° West 252 290 3,900 -1,080 Descending Washington Center
11:55PM 39.1667 -76.3833 274° West 236 272 3,300 -660 Descending Potomac TRACON
11:56PM 39.1667 -76.4833 270° West 184 212 2,600 -660 Descending Potomac TRACON
11:57PM 39.1667 -76.5333 270° West 174 200 2,000 -780 Descending Potomac TRACON
11:58PM 39.1667 -76.5833 270° West 162 186 1,300 -840 Descending Potomac TRACON
11:59PM 39.1667 -76.6333 270° West 151 174 500 -840 Descending Potomac TRACON
12:01AM 39.1667 -76.6667 270° West  Level FlightAware Approximate
12:08AM 39.1754 -76.6683 270° West  Level Estimated
12:09AM 39.1754 -76.6683 270° West  Level Estimated
12:10AM 39.1754 -76.6683 270° West  Level Estimated
12:11AM 39.1754 -76.6683 270° West  Level Estimated
12:12AM 39.1754 -76.6683 270° West  Level Estimated
12:13AM 39.1754 -76.6683 270° West  Level Estimated
12:14AM 39.1754 -76.6683 270° West  Level Estimated